Impacts TAF Board
For situational awareness. Not to be used for flight planning purposes.
IDs:

KMLB - Melbourne Intl, FL, US

Issued at 1736 UTC 30 Jun 2022
Updated at 2237 UTC 30 Jun 2022
Potential Impact None Slight Moderate High
Time2201Z 30/23Z 01/00Z 01/01Z 01/02Z 01/03Z 01/04Z 01/05Z 01/06Z 01/07Z 01/08Z 01/09Z 01/10Z 01/11Z>>
Type OBS PRVL PRVL PRVL PRVL PRVL PRVL PRVL PRVL PRVL PRVL PRVL PRVL PRVL
VIS 10 >6 >6 >6 >6 >6 >6 >6 >6 >6 >6 >6 >6 >6
CIG 37 40 120 120 120 120 140 140 140 140 140 140 140 140
Cover BKN BKN BKN BKN BKN BKN BKN BKN BKN BKN BKN BKN BKN BKN
FltCat VFR VFR VFR VFR VFR VFR VFR VFR VFR VFR VFR VFR VFR VFR
WX VCTS VCTS VCSH VCSH VCSH VCSH -- -- -- -- -- -- -- --
WDir 240 110 140 140 140 140 160 160 160 160 160 160 160 160
WSpd 6 10 6 6 6 6 4 4 4 4 4 4 4 4
WGst -- -- -- -- -- -- -- -- -- -- -- -- -- --
WSHgt -- -- -- -- -- -- -- -- -- -- -- -- -- --
WSDir -- -- -- -- -- -- -- -- -- -- -- -- -- --
WSSpd -- -- -- -- -- -- -- -- -- -- -- -- -- --
Raw TAF
KMLB 301736Z 3018/0118 11010KT P6SM VCTS SCT025CB BKN040 BKN250
  TEMPO 3018/3020 3SM TSRA BKN025CB
  FM010000 14006KT P6SM VCSH FEW030 SCT060 BKN120
  FM010400 16004KT P6SM SCT080 BKN140
  FM011400 16006KT P6SM SCT035 SCT080 BKN200


Raw METAR
KMLB 302201Z 24006KT 10SM VCTS SCT025 BKN037 BKN065 26/21 A3008 RMK AO2 LTG DSNT SW TSE2155 T02610211
KMLB 302153Z 26006KT 10SM TS FEW022 SCT036 BKN050 26/21 A3008 RMK AO2 SLP186 T02610211
KMLB 302135Z 24005KT 10SM TS SCT022 BKN033 OVC055 27/22 A3008 RMK AO2 T02670222
KMLB 302123Z 14010KT 10SM TS SCT020 BKN027 OVC055 29/24 A3008 RMK AO2 LTG DSNT SW AND W T02890239
KMLB 302053Z 12010KT 10SM TS CLR 29/24 A3008 RMK AO2 LTG DSNT W AND NW TSE20B46 SLP184 T02890239 56001
KMLB 302026Z 13010KT 10SM VCTS FEW060 29/23 A3007 RMK AO2 LTG DSNT SW-NW TSE20 T02890233
KMLB 301953Z 13014KT 10SM TS CLR 31/23 A3006 RMK AO2 LTG DSNT ALQDS TSB47 SLP179 T03060233
KMLB 301942Z 12014KT 10SM VCTS CLR 31/23 A3007 RMK AO2 LTG DSNT S-NW T03110233

METAR Board
Radar Display
Forecast Discussion
For situational awareness. Not to be used for flight planning purposes.